sensor_id;sensor_type;location;lat;lon;timestamp;pressure;altitude;pressure_sealevel;temperature;humidity
18678;BME280;9469;51.114;13.914;2024-01-30T00:03:34;100285.31;;;3.19;100.00
18678;BME280;9469;51.114;13.914;2024-01-30T00:08:41;100283.38;;;3.08;100.00
18678;BME280;9469;51.114;13.914;2024-01-30T00:13:51;100281.91;;;3.19;100.00
18678;BME280;9469;51.114;13.914;2024-01-30T00:19:07;100283.19;;;3.10;100.00
18678;BME280;9469;51.114;13.914;2024-01-30T00:24:12;100282.38;;;3.09;100.00
18678;BME280;9469;51.114;13.914;2024-01-30T00:29:24;100272.50;;;3.05;100.00
18678;BME280;9469;51.114;13.914;2024-01-30T00:34:32;100272.09;;;3.01;100.00
18678;BME280;9469;51.114;13.914;2024-01-30T00:39:40;100271.13;;;2.96;100.00
18678;BME280;9469;51.114;13.914;2024-01-30T00:44:48;100263.13;;;2.84;100.00
18678;BME280;9469;51.114;13.914;2024-01-30T00:49:54;100266.53;;;2.91;100.00
18678;BME280;9469;51.114;13.914;2024-01-30T00:55:00;100267.75;;;2.88;100.00
18678;BME280;9469;51.114;13.914;2024-01-30T01:00:11;100277.84;;;2.85;100.00
18678;BME280;9469;51.114;13.914;2024-01-30T01:05:19;100276.09;;;2.79;100.00
18678;BME280;9469;51.114;13.914;2024-01-30T01:10:25;100279.75;;;2.78;100.00
18678;BME280;9469;51.114;13.914;2024-01-30T01:15:33;100274.91;;;2.75;100.00
18678;BME280;9469;51.114;13.914;2024-01-30T01:20:39;100278.94;;;2.77;100.00
18678;BME280;9469;51.114;13.914;2024-01-30T01:25:47;100264.16;;;2.76;100.00
18678;BME280;9469;51.114;13.914;2024-01-30T01:30:56;100262.34;;;2.77;100.00
18678;BME280;9469;51.114;13.914;2024-01-30T01:36:07;100263.63;;;2.68;100.00
18678;BME280;9469;51.114;13.914;2024-01-30T01:41:15;100271.09;;;2.71;100.00
18678;BME280;9469;51.114;13.914;2024-01-30T01:46:24;100264.03;;;2.65;100.00
18678;BME280;9469;51.114;13.914;2024-01-30T01:51:31;100267.69;;;2.64;100.00
18678;BME280;9469;51.114;13.914;2024-01-30T01:56:38;100279.16;;;2.69;100.00
18678;BME280;9469;51.114;13.914;2024-01-30T02:01:46;100272.34;;;2.62;100.00
18678;BME280;9469;51.114;13.914;2024-01-30T02:06:53;100261.81;;;2.68;100.00
18678;BME280;9469;51.114;13.914;2024-01-30T02:11:59;100260.84;;;2.56;100.00
18678;BME280;9469;51.114;13.914;2024-01-30T02:17:07;100262.94;;;2.48;100.00
18678;BME280;9469;51.114;13.914;2024-01-30T02:22:15;100269.00;;;2.48;100.00
18678;BME280;9469;51.114;13.914;2024-01-30T02:27:20;100266.16;;;2.50;100.00
18678;BME280;9469;51.114;13.914;2024-01-30T02:32:25;100248.78;;;2.49;100.00
18678;BME280;9469;51.114;13.914;2024-01-30T02:37:35;100255.31;;;2.40;100.00
18678;BME280;9469;51.114;13.914;2024-01-30T02:42:41;100256.97;;;2.28;100.00
18678;BME280;9469;51.114;13.914;2024-01-30T02:47:46;100245.94;;;2.12;100.00
18678;BME280;9469;51.114;13.914;2024-01-30T02:52:58;100243.28;;;2.12;100.00
18678;BME280;9469;51.114;13.914;2024-01-30T02:58:03;100251.53;;;2.23;100.00
18678;BME280;9469;51.114;13.914;2024-01-30T03:03:09;100234.38;;;2.20;100.00
18678;BME280;9469;51.114;13.914;2024-01-30T03:08:17;100249.53;;;2.11;100.00
18678;BME280;9469;51.114;13.914;2024-01-30T03:13:23;100245.09;;;2.12;100.00
18678;BME280;9469;51.114;13.914;2024-01-30T03:18:29;100247.75;;;2.05;100.00
18678;BME280;9469;51.114;13.914;2024-01-30T03:23:39;100237.47;;;1.97;100.00
18678;BME280;9469;51.114;13.914;2024-01-30T03:28:47;100237.88;;;2.01;100.00
18678;BME280;9469;51.114;13.914;2024-01-30T03:33:53;100240.03;;;2.10;100.00
18678;BME280;9469;51.114;13.914;2024-01-30T03:39:01;100235.00;;;2.09;100.00
18678;BME280;9469;51.114;13.914;2024-01-30T03:44:09;100239.28;;;1.97;100.00
18678;BME280;9469;51.114;13.914;2024-01-30T03:49:14;100245.16;;;1.99;100.00
18678;BME280;9469;51.114;13.914;2024-01-30T03:54:25;100240.09;;;1.97;100.00
18678;BME280;9469;51.114;13.914;2024-01-30T03:59:31;100240.88;;;2.04;100.00
18678;BME280;9469;51.114;13.914;2024-01-30T04:04:36;100233.25;;;1.96;100.00
18678;BME280;9469;51.114;13.914;2024-01-30T04:09:47;100221.34;;;1.94;100.00
18678;BME280;9469;51.114;13.914;2024-01-30T04:14:54;100217.47;;;2.03;100.00
18678;BME280;9469;51.114;13.914;2024-01-30T04:20:04;100230.78;;;2.01;100.00
18678;BME280;9469;51.114;13.914;2024-01-30T04:25:14;100223.75;;;1.95;100.00
18678;BME280;9469;51.114;13.914;2024-01-30T04:30:24;100231.00;;;2.00;100.00
18678;BME280;9469;51.114;13.914;2024-01-30T04:35:31;100228.97;;;2.02;100.00
18678;BME280;9469;51.114;13.914;2024-01-30T04:40:40;100222.16;;;1.94;100.00
18678;BME280;9469;51.114;13.914;2024-01-30T04:45:47;100219.94;;;1.91;100.00
18678;BME280;9469;51.114;13.914;2024-01-30T04:50:52;100218.72;;;1.94;100.00
18678;BME280;9469;51.114;13.914;2024-01-30T04:56:01;100221.16;;;1.89;100.00
18678;BME280;9469;51.114;13.914;2024-01-30T05:01:06;100214.28;;;1.88;100.00
18678;BME280;9469;51.114;13.914;2024-01-30T05:06:24;100219.38;;;1.83;100.00
18678;BME280;9469;51.114;13.914;2024-01-30T05:11:37;100227.63;;;1.86;100.00
18678;BME280;9469;51.114;13.914;2024-01-30T05:16:43;100219.56;;;1.81;100.00
18678;BME280;9469;51.114;13.914;2024-01-30T05:21:50;100217.09;;;1.93;100.00
18678;BME280;9469;51.114;13.914;2024-01-30T05:27:00;100215.69;;;1.90;100.00
18678;BME280;9469;51.114;13.914;2024-01-30T05:32:06;100203.63;;;1.83;100.00
18678;BME280;9469;51.114;13.914;2024-01-30T05:37:19;100201.38;;;1.86;100.00
18678;BME280;9469;51.114;13.914;2024-01-30T05:42:27;100216.72;;;1.89;100.00
18678;BME280;9469;51.114;13.914;2024-01-30T05:47:34;100213.53;;;1.81;100.00
18678;BME280;9469;51.114;13.914;2024-01-30T05:52:41;100209.66;;;1.83;100.00
18678;BME280;9469;51.114;13.914;2024-01-30T05:57:49;100215.91;;;1.89;100.00
18678;BME280;9469;51.114;13.914;2024-01-30T06:03:08;100200.63;;;2.24;100.00
18678;BME280;9469;51.114;13.914;2024-01-30T06:08:14;100209.00;;;2.01;100.00
18678;BME280;9469;51.114;13.914;2024-01-30T06:13:25;100203.59;;;1.89;100.00
18678;BME280;9469;51.114;13.914;2024-01-30T06:18:31;100211.44;;;1.96;100.00
18678;BME280;9469;51.114;13.914;2024-01-30T06:23:36;100213.03;;;1.97;100.00
18678;BME280;9469;51.114;13.914;2024-01-30T06:28:48;100210.41;;;1.97;100.00
18678;BME280;9469;51.114;13.914;2024-01-30T06:33:56;100209.78;;;2.01;100.00
18678;BME280;9469;51.114;13.914;2024-01-30T06:39:03;100212.97;;;2.16;100.00
18678;BME280;9469;51.114;13.914;2024-01-30T06:44:17;100204.28;;;2.16;100.00
18678;BME280;9469;51.114;13.914;2024-01-30T06:49:27;100221.28;;;2.07;100.00
18678;BME280;9469;51.114;13.914;2024-01-30T06:54:38;100209.38;;;2.04;100.00
18678;BME280;9469;51.114;13.914;2024-01-30T06:59:47;100211.38;;;2.09;100.00
18678;BME280;9469;51.114;13.914;2024-01-30T07:04:52;100202.28;;;2.11;100.00
18678;BME280;9469;51.114;13.914;2024-01-30T07:10:01;100207.31;;;2.13;100.00
18678;BME280;9469;51.114;13.914;2024-01-30T07:15:12;100213.31;;;2.27;100.00
18678;BME280;9469;51.114;13.914;2024-01-30T07:20:21;100219.19;;;2.22;100.00
18678;BME280;9469;51.114;13.914;2024-01-30T07:25:27;100208.41;;;2.43;100.00
18678;BME280;9469;51.114;13.914;2024-01-30T07:30:37;100219.13;;;2.42;100.00
18678;BME280;9469;51.114;13.914;2024-01-30T07:35:47;100214.88;;;2.72;100.00
18678;BME280;9469;51.114;13.914;2024-01-30T07:40:56;100211.88;;;2.68;100.00
18678;BME280;9469;51.114;13.914;2024-01-30T07:46:04;100205.34;;;2.77;100.00
18678;BME280;9469;51.114;13.914;2024-01-30T07:51:09;100204.13;;;2.80;100.00
18678;BME280;9469;51.114;13.914;2024-01-30T07:56:16;100214.94;;;2.90;100.00
18678;BME280;9469;51.114;13.914;2024-01-30T08:01:26;100208.88;;;2.89;100.00
18678;BME280;9469;51.114;13.914;2024-01-30T08:06:33;100215.28;;;3.00;100.00
18678;BME280;9469;51.114;13.914;2024-01-30T08:11:40;100202.47;;;3.10;100.00
18678;BME280;9469;51.114;13.914;2024-01-30T08:16:48;100202.56;;;3.22;100.00
18678;BME280;9469;51.114;13.914;2024-01-30T08:21:54;100202.19;;;3.18;100.00
18678;BME280;9469;51.114;13.914;2024-01-30T08:27:00;100201.28;;;3.31;100.00
18678;BME280;9469;51.114;13.914;2024-01-30T08:32:10;100203.78;;;3.19;100.00
18678;BME280;9469;51.114;13.914;2024-01-30T08:37:16;100205.47;;;3.38;100.00
18678;BME280;9469;51.114;13.914;2024-01-30T08:42:23;100205.97;;;3.47;100.00
18678;BME280;9469;51.114;13.914;2024-01-30T08:53:28;100193.06;;;3.82;100.00
18678;BME280;9469;51.114;13.914;2024-01-30T08:58:35;100199.31;;;3.99;99.49
18678;BME280;9469;51.114;13.914;2024-01-30T09:03:40;100187.47;;;4.08;98.99
18678;BME280;9469;51.114;13.914;2024-01-30T09:08:52;100205.06;;;4.25;98.47
18678;BME280;9469;51.114;13.914;2024-01-30T09:14:00;100211.44;;;4.36;97.68
18678;BME280;9469;51.114;13.914;2024-01-30T09:19:05;100220.09;;;4.25;97.30
18678;BME280;9469;51.114;13.914;2024-01-30T09:24:13;100222.03;;;4.59;96.00
18678;BME280;9469;51.114;13.914;2024-01-30T09:29:19;100226.28;;;4.60;95.61
18678;BME280;9469;51.114;13.914;2024-01-30T09:34:26;100221.78;;;4.49;95.49
18678;BME280;9469;51.114;13.914;2024-01-30T09:39:34;100231.91;;;4.52;95.09
18678;BME280;9469;51.114;13.914;2024-01-30T09:44:43;100244.75;;;4.60;95.35
18678;BME280;9469;51.114;13.914;2024-01-30T09:49:49;100253.50;;;4.72;94.54
18678;BME280;9469;51.114;13.914;2024-01-30T09:55:05;100237.19;;;4.64;94.84
18678;BME280;9469;51.114;13.914;2024-01-30T10:00:12;100238.66;;;5.01;93.45
18678;BME280;9469;51.114;13.914;2024-01-30T10:05:21;100217.72;;;5.41;91.09
18678;BME280;9469;51.114;13.914;2024-01-30T10:10:34;100220.59;;;5.51;89.80
18678;BME280;9469;51.114;13.914;2024-01-30T10:15:43;100223.78;;;5.18;91.02
18678;BME280;9469;51.114;13.914;2024-01-30T10:20:50;100217.00;;;4.99;92.53
18678;BME280;9469;51.114;13.914;2024-01-30T10:25:58;100205.06;;;4.96;92.48
18678;BME280;9469;51.114;13.914;2024-01-30T10:31:09;100203.94;;;5.39;90.72
18678;BME280;9469;51.114;13.914;2024-01-30T10:36:14;100193.84;;;5.47;89.89
18678;BME280;9469;51.114;13.914;2024-01-30T10:41:27;100187.28;;;5.61;89.34
18678;BME280;9469;51.114;13.914;2024-01-30T10:46:38;100172.16;;;5.57;89.49
18678;BME280;9469;51.114;13.914;2024-01-30T10:51:46;100172.94;;;5.92;87.32
18678;BME280;9469;51.114;13.914;2024-01-30T10:57:05;100159.44;;;5.54;88.19
18678;BME280;9469;51.114;13.914;2024-01-30T11:02:13;100152.75;;;6.14;86.71
18678;BME280;9469;51.114;13.914;2024-01-30T11:07:31;100144.72;;;6.09;86.30
18678;BME280;9469;51.114;13.914;2024-01-30T11:13:27;100142.19;;;6.14;85.76
18678;BME280;9469;51.114;13.914;2024-01-30T11:18:35;100142.88;;;6.10;85.18
18678;BME280;9469;51.114;13.914;2024-01-30T11:23:42;100137.56;;;6.21;85.02
18678;BME280;9469;51.114;13.914;2024-01-30T11:28:56;100122.63;;;6.15;85.30
18678;BME280;9469;51.114;13.914;2024-01-30T11:34:03;100121.75;;;6.10;85.19
18678;BME280;9469;51.114;13.914;2024-01-30T11:39:11;100122.88;;;5.74;86.10
18678;BME280;9469;51.114;13.914;2024-01-30T11:50:04;100130.16;;;5.55;87.92
18678;BME280;9469;51.114;13.914;2024-01-30T11:55:29;100116.94;;;5.55;87.88
18678;BME280;9469;51.114;13.914;2024-01-30T12:00:36;100115.47;;;5.48;87.37
18678;BME280;9469;51.114;13.914;2024-01-30T12:05:55;100113.34;;;5.10;88.61
18678;BME280;9469;51.114;13.914;2024-01-30T12:11:08;100110.13;;;5.31;88.10
18678;BME280;9469;51.114;13.914;2024-01-30T12:16:17;100112.66;;;5.26;88.72
18678;BME280;9469;51.114;13.914;2024-01-30T12:21:25;100102.41;;;5.30;88.49
18678;BME280;9469;51.114;13.914;2024-01-30T12:26:31;100112.38;;;5.39;89.26
18678;BME280;9469;51.114;13.914;2024-01-30T12:31:37;100100.56;;;5.42;89.09
18678;BME280;9469;51.114;13.914;2024-01-30T12:36:54;100091.56;;;5.66;87.45
18678;BME280;9469;51.114;13.914;2024-01-30T12:42:12;100081.50;;;5.51;87.74
18678;BME280;9469;51.114;13.914;2024-01-30T12:47:24;100098.25;;;5.45;87.47
18678;BME280;9469;51.114;13.914;2024-01-30T12:52:36;100091.19;;;5.23;88.68
18678;BME280;9469;51.114;13.914;2024-01-30T12:57:52;100089.81;;;5.20;89.00
18678;BME280;9469;51.114;13.914;2024-01-30T13:03:01;100098.66;;;5.14;89.20
18678;BME280;9469;51.114;13.914;2024-01-30T13:08:17;100099.78;;;5.18;89.50
18678;BME280;9469;51.114;13.914;2024-01-30T13:13:22;100075.13;;;5.36;89.14
18678;BME280;9469;51.114;13.914;2024-01-30T13:18:33;100076.09;;;5.06;89.80
18678;BME280;9469;51.114;13.914;2024-01-30T13:23:41;100070.13;;;4.99;91.03
18678;BME280;9469;51.114;13.914;2024-01-30T13:28:46;100073.06;;;4.45;94.08
18678;BME280;9469;51.114;13.914;2024-01-30T13:33:51;100074.56;;;4.64;93.47
18678;BME280;9469;51.114;13.914;2024-01-30T13:39:02;100072.88;;;4.70;94.21
18678;BME280;9469;51.114;13.914;2024-01-30T13:44:11;100061.63;;;4.51;94.67
18678;BME280;9469;51.114;13.914;2024-01-30T13:49:18;100057.06;;;4.93;93.12
18678;BME280;9469;51.114;13.914;2024-01-30T13:54:26;100053.38;;;4.82;93.06
18678;BME280;9469;51.114;13.914;2024-01-30T13:59:32;100050.84;;;4.87;92.76
18678;BME280;9469;51.114;13.914;2024-01-30T14:04:41;100043.41;;;4.84;93.58
18678;BME280;9469;51.114;13.914;2024-01-30T14:09:50;100046.63;;;4.63;94.12
18678;BME280;9469;51.114;13.914;2024-01-30T14:14:58;100050.03;;;4.29;96.82
18678;BME280;9469;51.114;13.914;2024-01-30T14:20:17;100051.88;;;3.69;99.32
18678;BME280;9469;51.114;13.914;2024-01-30T14:25:25;100048.91;;;3.95;99.75
18678;BME280;9469;51.114;13.914;2024-01-30T14:30:31;100048.41;;;3.57;100.00
18678;BME280;9469;51.114;13.914;2024-01-30T14:35:39;100049.44;;;3.38;100.00
18678;BME280;9469;51.114;13.914;2024-01-30T14:40:51;100044.06;;;3.15;100.00
18678;BME280;9469;51.114;13.914;2024-01-30T14:45:56;100042.38;;;3.38;100.00
18678;BME280;9469;51.114;13.914;2024-01-30T14:51:02;100038.00;;;3.14;100.00
18678;BME280;9469;51.114;13.914;2024-01-30T14:56:11;100049.22;;;3.03;100.00
18678;BME280;9469;51.114;13.914;2024-01-30T15:01:26;100047.91;;;2.94;100.00
18678;BME280;9469;51.114;13.914;2024-01-30T15:06:35;100038.28;;;3.06;100.00
18678;BME280;9469;51.114;13.914;2024-01-30T15:11:45;100039.31;;;2.87;100.00
18678;BME280;9469;51.114;13.914;2024-01-30T15:16:50;100043.06;;;2.73;100.00
18678;BME280;9469;51.114;13.914;2024-01-30T15:21:55;100046.97;;;2.46;100.00
18678;BME280;9469;51.114;13.914;2024-01-30T15:27:04;100038.84;;;2.23;100.00
18678;BME280;9469;51.114;13.914;2024-01-30T15:32:11;100028.47;;;2.09;100.00
18678;BME280;9469;51.114;13.914;2024-01-30T15:37:16;100033.47;;;2.11;100.00
18678;BME280;9469;51.114;13.914;2024-01-30T15:42:25;100046.28;;;2.01;100.00
18678;BME280;9469;51.114;13.914;2024-01-30T15:52:56;100054.84;;;1.83;100.00
18678;BME280;9469;51.114;13.914;2024-01-30T15:58:04;100062.19;;;1.68;100.00
18678;BME280;9469;51.114;13.914;2024-01-30T16:03:11;100061.56;;;1.73;100.00
18678;BME280;9469;51.114;13.914;2024-01-30T16:08:16;100082.34;;;1.74;100.00
18678;BME280;9469;51.114;13.914;2024-01-30T16:13:24;100073.31;;;1.64;100.00
18678;BME280;9469;51.114;13.914;2024-01-30T16:18:30;100090.53;;;1.53;100.00
18678;BME280;9469;51.114;13.914;2024-01-30T16:23:36;100090.06;;;1.69;100.00
18678;BME280;9469;51.114;13.914;2024-01-30T16:28:44;100077.09;;;1.81;100.00
18678;BME280;9469;51.114;13.914;2024-01-30T16:33:50;100063.66;;;2.27;100.00
18678;BME280;9469;51.114;13.914;2024-01-30T16:38:55;100080.53;;;2.12;100.00
18678;BME280;9469;51.114;13.914;2024-01-30T16:44:04;100100.38;;;2.02;100.00
18678;BME280;9469;51.114;13.914;2024-01-30T16:49:10;100078.78;;;2.80;100.00
18678;BME280;9469;51.114;13.914;2024-01-30T16:54:18;100087.53;;;1.87;100.00
18678;BME280;9469;51.114;13.914;2024-01-30T16:59:26;100083.53;;;1.85;100.00
18678;BME280;9469;51.114;13.914;2024-01-30T17:04:32;100073.75;;;1.98;100.00
18678;BME280;9469;51.114;13.914;2024-01-30T17:09:42;100078.91;;;2.11;100.00
18678;BME280;9469;51.114;13.914;2024-01-30T17:26:34;100082.81;;;2.34;100.00
18678;BME280;9469;51.114;13.914;2024-01-30T17:31:46;100083.06;;;2.26;100.00
18678;BME280;9469;51.114;13.914;2024-01-30T17:36:57;100090.09;;;2.00;100.00
18678;BME280;9469;51.114;13.914;2024-01-30T17:42:05;100073.84;;;1.85;100.00
18678;BME280;9469;51.114;13.914;2024-01-30T17:47:12;100090.97;;;1.88;100.00
18678;BME280;9469;51.114;13.914;2024-01-30T17:52:19;100094.50;;;1.69;100.00
18678;BME280;9469;51.114;13.914;2024-01-30T17:57:28;100097.72;;;1.71;100.00
18678;BME280;9469;51.114;13.914;2024-01-30T18:02:33;100098.09;;;1.74;100.00
18678;BME280;9469;51.114;13.914;2024-01-30T18:07:39;100101.81;;;1.60;100.00
18678;BME280;9469;51.114;13.914;2024-01-30T18:12:48;100110.66;;;1.59;100.00
18678;BME280;9469;51.114;13.914;2024-01-30T18:17:58;100102.59;;;1.61;100.00
18678;BME280;9469;51.114;13.914;2024-01-30T18:23:06;100100.78;;;1.61;100.00
18678;BME280;9469;51.114;13.914;2024-01-30T18:28:14;100106.44;;;1.65;100.00
18678;BME280;9469;51.114;13.914;2024-01-30T18:33:22;100099.97;;;1.61;100.00
18678;BME280;9469;51.114;13.914;2024-01-30T18:38:29;100105.00;;;1.62;100.00
18678;BME280;9469;51.114;13.914;2024-01-30T18:43:39;100103.38;;;1.68;100.00
18678;BME280;9469;51.114;13.914;2024-01-30T18:48:46;100094.53;;;1.62;100.00
18678;BME280;9469;51.114;13.914;2024-01-30T18:53:52;100101.41;;;1.57;100.00
18678;BME280;9469;51.114;13.914;2024-01-30T18:59:00;100099.41;;;1.52;100.00
18678;BME280;9469;51.114;13.914;2024-01-30T19:04:08;100102.22;;;1.57;100.00
18678;BME280;9469;51.114;13.914;2024-01-30T19:09:13;100110.94;;;1.44;100.00
18678;BME280;9469;51.114;13.914;2024-01-30T19:14:24;100107.53;;;1.37;100.00
18678;BME280;9469;51.114;13.914;2024-01-30T19:19:33;100118.00;;;1.44;100.00
18678;BME280;9469;51.114;13.914;2024-01-30T19:24:38;100119.44;;;1.40;100.00
18678;BME280;9469;51.114;13.914;2024-01-30T19:29:46;100118.78;;;1.38;100.00
18678;BME280;9469;51.114;13.914;2024-01-30T19:34:54;100126.47;;;1.46;100.00
18678;BME280;9469;51.114;13.914;2024-01-30T19:39:59;100119.97;;;1.55;100.00
18678;BME280;9469;51.114;13.914;2024-01-30T19:45:10;100133.69;;;1.57;100.00
18678;BME280;9469;51.114;13.914;2024-01-30T19:50:15;100135.75;;;1.42;100.00
18678;BME280;9469;51.114;13.914;2024-01-30T19:55:20;100145.00;;;1.51;100.00
18678;BME280;9469;51.114;13.914;2024-01-30T20:00:31;100149.78;;;1.61;100.00
18678;BME280;9469;51.114;13.914;2024-01-30T20:05:36;100154.28;;;1.54;100.00
18678;BME280;9469;51.114;13.914;2024-01-30T20:10:42;100151.50;;;1.42;100.00
18678;BME280;9469;51.114;13.914;2024-01-30T20:15:51;100151.06;;;1.45;100.00
18678;BME280;9469;51.114;13.914;2024-01-30T20:20:56;100159.13;;;1.50;100.00
18678;BME280;9469;51.114;13.914;2024-01-30T20:26:02;100164.91;;;1.65;100.00
18678;BME280;9469;51.114;13.914;2024-01-30T20:31:14;100166.97;;;1.57;100.00
18678;BME280;9469;51.114;13.914;2024-01-30T20:36:20;100151.06;;;1.45;100.00
18678;BME280;9469;51.114;13.914;2024-01-30T20:41:26;100169.25;;;1.97;100.00
18678;BME280;9469;51.114;13.914;2024-01-30T20:46:40;100161.53;;;1.58;100.00
18678;BME280;9469;51.114;13.914;2024-01-30T20:51:48;100162.94;;;1.54;100.00
18678;BME280;9469;51.114;13.914;2024-01-30T20:56:53;100162.13;;;1.60;100.00
18678;BME280;9469;51.114;13.914;2024-01-30T21:02:02;100159.47;;;1.67;100.00
18678;BME280;9469;51.114;13.914;2024-01-30T21:07:07;100156.88;;;1.60;100.00
18678;BME280;9469;51.114;13.914;2024-01-30T21:12:13;100159.03;;;1.83;100.00
18678;BME280;9469;51.114;13.914;2024-01-30T21:17:21;100156.63;;;1.75;100.00
18678;BME280;9469;51.114;13.914;2024-01-30T21:22:28;100160.69;;;1.64;100.00
18678;BME280;9469;51.114;13.914;2024-01-30T21:27:35;100157.88;;;1.59;100.00
18678;BME280;9469;51.114;13.914;2024-01-30T21:32:49;100163.88;;;1.73;100.00
18678;BME280;9469;51.114;13.914;2024-01-30T21:37:57;100183.28;;;1.72;100.00
18678;BME280;9469;51.114;13.914;2024-01-30T21:43:06;100170.16;;;1.65;100.00
18678;BME280;9469;51.114;13.914;2024-01-30T21:48:14;100173.59;;;1.66;100.00
18678;BME280;9469;51.114;13.914;2024-01-30T21:53:22;100173.84;;;1.58;100.00
18678;BME280;9469;51.114;13.914;2024-01-30T21:58:27;100173.84;;;1.58;100.00
18678;BME280;9469;51.114;13.914;2024-01-30T22:03:36;100179.25;;;1.56;100.00
18678;BME280;9469;51.114;13.914;2024-01-30T22:08:41;100182.09;;;1.55;100.00
18678;BME280;9469;51.114;13.914;2024-01-30T22:13:47;100182.50;;;1.58;100.00
18678;BME280;9469;51.114;13.914;2024-01-30T22:18:57;100180.09;;;1.50;100.00
18678;BME280;9469;51.114;13.914;2024-01-30T22:24:03;100181.31;;;1.41;100.00
18678;BME280;9469;51.114;13.914;2024-01-30T22:29:12;100188.19;;;1.42;100.00
18678;BME280;9469;51.114;13.914;2024-01-30T22:34:28;100198.06;;;1.47;100.00
18678;BME280;9469;51.114;13.914;2024-01-30T22:39:38;100189.34;;;1.59;100.00
18678;BME280;9469;51.114;13.914;2024-01-30T22:44:44;100193.00;;;1.52;100.00
18678;BME280;9469;51.114;13.914;2024-01-30T22:49:52;100197.81;;;1.61;100.00
18678;BME280;9469;51.114;13.914;2024-01-30T22:55:01;100197.84;;;1.55;100.00
18678;BME280;9469;51.114;13.914;2024-01-30T23:00:07;100203.09;;;1.48;100.00
18678;BME280;9469;51.114;13.914;2024-01-30T23:05:19;100202.88;;;1.50;100.00
18678;BME280;9469;51.114;13.914;2024-01-30T23:10:25;100206.72;;;1.47;100.00
18678;BME280;9469;51.114;13.914;2024-01-30T23:15:30;100206.13;;;1.58;100.00
18678;BME280;9469;51.114;13.914;2024-01-30T23:20:38;100199.06;;;1.52;100.00
18678;BME280;9469;51.114;13.914;2024-01-30T23:25:43;100205.50;;;1.50;100.00
18678;BME280;9469;51.114;13.914;2024-01-30T23:30:49;100208.94;;;1.50;100.00
18678;BME280;9469;51.114;13.914;2024-01-30T23:36:02;100221.84;;;1.58;100.00
18678;BME280;9469;51.114;13.914;2024-01-30T23:41:07;100218.41;;;1.58;100.00
18678;BME280;9469;51.114;13.914;2024-01-30T23:46:13;100216.59;;;1.65;100.00
18678;BME280;9469;51.114;13.914;2024-01-30T23:51:20;100212.38;;;1.57;100.00
18678;BME280;9469;51.114;13.914;2024-01-30T23:56:26;100203.84;;;1.68;100.00
